^^
Saratoga-Weather Station Historical Data
Daily Summary for August 16, 2020 Units:  Both    English   Metric
Daily Weekly Monthly Yearly Custom
  High: Low: Average:
Temperature: 76.3 °F /  24.6 °C 39.2 °F /  4 °C 57.7 °F /  14.3 °C
Dew Point: 50 °F /  10 °C 32 °F /  0 °C 40.6 °F /  4.8 °C
Humidity: 79% 31% 55%
Wind Speed: 8.1mph /  13km/h - 1.2mph /  2km/h
Wind Gust: 10mph /  16.1km/h - -
Wind- - South
Pressure: 30.1 in /  1018.6 hPa 29.9 in /  1013.5 hPa -
Precipitation: 0 in /  0.0 mm    
Historical Graphs
 
 
Tabular Data for August 16, 2020
Time Temperature Dew Point Pressure Wind Wind Speed Wind Gust Humidity Rainfall Rate (Hourly) solar
00:03 47.5 °F /  8.6 °C 33.1 °F /  0.6 °C 30.1in /  1018.6hPa Calm     57% 0in /  0.0mm 0 W/m2
00:08 47.5 °F /  8.6 °C 33.1 °F /  0.6 °C 30.1in /  1018.6hPa Calm     57% 0in /  0.0mm 0 W/m2
00:13 47.3 °F /  8.5 °C 32.9 °F /  0.5 °C 30.1in /  1018.6hPa Calm     57% 0in /  0.0mm 0 W/m2
00:18 47.1 °F /  8.4 °C 32.7 °F /  0.4 °C 30.1in /  1018.6hPa Calm   1mph /  1.6km/h 57% 0in /  0.0mm 0 W/m2
00:23 46.9 °F /  8.3 °C 32.9 °F /  0.5 °C 30.1in /  1018.6hPa Calm   1mph /  1.6km/h 58% 0in /  0.0mm 0 W/m2
00:28 46.9 °F /  8.3 °C 32.5 °F /  0.3 °C 30.1in /  1018.6hPa Calm     57% 0in /  0.0mm 0 W/m2
00:33 46.8 °F /  8.2 °C 33.3 °F /  0.7 °C 30.1in /  1018.6hPa SSE 0.9mph /  1.4km/h 1mph /  1.6km/h 59% 0in /  0.0mm 0 W/m2
00:38 46.8 °F /  8.2 °C 32.7 °F /  0.4 °C 30.1in /  1018.6hPa Calm     58% 0in /  0.0mm 0 W/m2
00:43 46.6 °F /  8.1 °C 33.1 °F /  0.6 °C 30.1in /  1018.6hPa Calm     59% 0in /  0.0mm 0 W/m2
00:48 46.4 °F /  8 °C 33.3 °F /  0.7 °C 30.1in /  1018.6hPa Calm     60% 0in /  0.0mm 0 W/m2
00:53 46.2 °F /  7.9 °C 33.1 °F /  0.6 °C 30.1in /  1018.6hPa Calm     60% 0in /  0.0mm 0 W/m2
00:58 46 °F /  7.8 °C 32.9 °F /  0.5 °C 30.1in /  1018.6hPa Calm     60% 0in /  0.0mm 0 W/m2
01:03 46 °F /  7.8 °C 32.9 °F /  0.5 °C 30.1in /  1018.6hPa Calm     60% 0in /  0.0mm 0 W/m2
01:08 45.9 °F /  7.7 °C 33.3 °F /  0.7 °C 30.1in /  1018.6hPa Calm     61% 0in /  0.0mm 0 W/m2
01:13 45.9 °F /  7.7 °C 33.3 °F /  0.7 °C 30.1in /  1018.6hPa Calm     61% 0in /  0.0mm 0 W/m2
01:18 45.7 °F /  7.6 °C 33.1 °F /  0.6 °C 30.1in /  1018.6hPa Calm     61% 0in /  0.0mm 0 W/m2
01:23 45.5 °F /  7.5 °C 32.9 °F /  0.5 °C 30.1in /  1018.6hPa Calm   1mph /  1.6km/h 61% 0in /  0.0mm 0 W/m2
01:28 45.3 °F /  7.4 °C 33.1 °F /  0.6 °C 30.1in /  1018.6hPa Calm   1mph /  1.6km/h 62% 0in /  0.0mm 0 W/m2
01:33 45.1 °F /  7.3 °C 32.5 °F /  0.3 °C 30.1in /  1018.6hPa Calm   1mph /  1.6km/h 61% 0in /  0.0mm 0 W/m2
01:38 45.1 °F /  7.3 °C 32.9 °F /  0.5 °C 30.1in /  1018.6hPa Calm   1mph /  1.6km/h 62% 0in /  0.0mm 0 W/m2
01:43 45 °F /  7.2 °C 32.7 °F /  0.4 °C 30.1in /  1018.6hPa Calm     62% 0in /  0.0mm 0 W/m2
01:48 45 °F /  7.2 °C 32.7 °F /  0.4 °C 30.1in /  1018.6hPa Calm     62% 0in /  0.0mm 0 W/m2
01:53 44.8 °F /  7.1 °C 32.9 °F /  0.5 °C 30.1in /  1018.6hPa Calm     63% 0in /  0.0mm 0 W/m2
01:58 44.6 °F /  7 °C 32.7 °F /  0.4 °C 30.1in /  1018.6hPa Calm   1mph /  1.6km/h 63% 0in /  0.0mm 0 W/m2
02:03 44.6 °F /  7 °C 32.7 °F /  0.4 °C 30.1in /  1018.3hPa Calm   1mph /  1.6km/h 63% 0in /  0.0mm 0 W/m2
02:08 44.6 °F /  7 °C 32.7 °F /  0.4 °C 30.1in /  1018.3hPa Calm   1mph /  1.6km/h 63% 0in /  0.0mm 0 W/m2
02:13 44.4 °F /  6.9 °C 32.5 °F /  0.3 °C 30.1in /  1018.6hPa Calm   1mph /  1.6km/h 63% 0in /  0.0mm 0 W/m2
02:18 44.4 °F /  6.9 °C 32.5 °F /  0.3 °C 30.1in /  1018.3hPa Calm   1mph /  1.6km/h 63% 0in /  0.0mm 0 W/m2
02:23 44.4 °F /  6.9 °C 33.1 °F /  0.6 °C 30.1in /  1018.3hPa Calm     64% 0in /  0.0mm 0 W/m2
02:28 44.2 °F /  6.8 °C 33.3 °F /  0.7 °C 30.1in /  1018.3hPa Calm   1mph /  1.6km/h 65% 0in /  0.0mm 0 W/m2
02:33 44.2 °F /  6.8 °C 32.9 °F /  0.5 °C 30.1in /  1018.3hPa Calm     64% 0in /  0.0mm 0 W/m2
02:38 44.1 °F /  6.7 °C 33.1 °F /  0.6 °C 30.1in /  1018.3hPa Calm     65% 0in /  0.0mm 0 W/m2
02:43 44.1 °F /  6.7 °C 33.1 °F /  0.6 °C 30.1in /  1018.3hPa Calm     65% 0in /  0.0mm 0 W/m2
02:48 43.7 °F /  6.5 °C 33.1 °F /  0.6 °C 30.1in /  1018.3hPa Calm     66% 0in /  0.0mm 0 W/m2
02:53 43.5 °F /  6.4 °C 32.9 °F /  0.5 °C 30.1in /  1018.3hPa Calm     66% 0in /  0.0mm 0 W/m2
02:58 43.3 °F /  6.3 °C 33.1 °F /  0.6 °C 30.1in /  1018.3hPa Calm     67% 0in /  0.0mm 0 W/m2
03:03 43.3 °F /  6.3 °C 33.1 °F /  0.6 °C 30.1in /  1018.0hPa Calm     67% 0in /  0.0mm 0 W/m2
03:08 43.3 °F /  6.3 °C 33.1 °F /  0.6 °C 30.1in /  1018.0hPa Calm     67% 0in /  0.0mm 0 W/m2
03:13 43.3 °F /  6.3 °C 33.1 °F /  0.6 °C 30.1in /  1018.0hPa Calm     67% 0in /  0.0mm 0 W/m2
03:18 43.2 °F /  6.2 °C 32.9 °F /  0.5 °C 30.1in /  1018.0hPa Calm     67% 0in /  0.0mm 0 W/m2
03:23 43.2 °F /  6.2 °C 32.9 °F /  0.5 °C 30.1in /  1018.0hPa Calm     67% 0in /  0.0mm 0 W/m2
03:28 43 °F /  6.1 °C 32.7 °F /  0.4 °C 30.1in /  1018.0hPa Calm   1mph /  1.6km/h 67% 0in /  0.0mm 0 W/m2
03:33 43 °F /  6.1 °C 32.7 °F /  0.4 °C 30.1in /  1018.0hPa Calm     67% 0in /  0.0mm 0 W/m2
03:38 43 °F /  6.1 °C 32.7 °F /  0.4 °C 30.1in /  1018.0hPa Calm   1mph /  1.6km/h 67% 0in /  0.0mm 0 W/m2
03:43 43 °F /  6.1 °C 32.7 °F /  0.4 °C 30.1in /  1018.0hPa Calm     67% 0in /  0.0mm 0 W/m2
03:48 42.8 °F /  6 °C 32.5 °F /  0.3 °C 30.1in /  1018.0hPa Calm     67% 0in /  0.0mm 0 W/m2
03:53 42.6 °F /  5.9 °C 32.4 °F /  0.2 °C 30.1in /  1018.0hPa Calm     67% 0in /  0.0mm 0 W/m2
03:58 42.4 °F /  5.8 °C 32.2 °F /  0.1 °C 30.1in /  1018.0hPa Calm     67% 0in /  0.0mm 0 W/m2
04:03 42.4 °F /  5.8 °C 32.7 °F /  0.4 °C 30.1in /  1018.0hPa Calm     68% 0in /  0.0mm 0 W/m2
04:08 42.3 °F /  5.7 °C 32.5 °F /  0.3 °C 30.1in /  1017.6hPa Calm     68% 0in /  0.0mm 0 W/m2
04:13 42.1 °F /  5.6 °C 32.4 °F /  0.2 °C 30.1in /  1017.6hPa Calm     68% 0in /  0.0mm 0 W/m2
04:18 41.9 °F /  5.5 °C 32.5 °F /  0.3 °C 30.1in /  1017.6hPa Calm     69% 0in /  0.0mm 0 W/m2
04:23 41.7 °F /  5.4 °C 32.4 °F /  0.2 °C 30.1in /  1017.6hPa Calm     69% 0in /  0.0mm 0 W/m2
04:28 41.5 °F /  5.3 °C 32.2 °F /  0.1 °C 30.1in /  1017.6hPa Calm     69% 0in /  0.0mm 0 W/m2
04:33 41.4 °F /  5.2 °C 32.4 °F /  0.2 °C 30.1in /  1017.6hPa Calm     70% 0in /  0.0mm 0 W/m2
04:38 41.2 °F /  5.1 °C 32.2 °F /  0.1 °C 30.1in /  1017.6hPa Calm     70% 0in /  0.0mm 0 W/m2
04:43 41 °F /  5 °C 32 °F /  0 °C 30.1in /  1017.6hPa Calm     70% 0in /  0.0mm 0 W/m2
04:48 40.8 °F /  4.9 °C 32.2 °F /  0.1 °C 30.1in /  1017.6hPa Calm     71% 0in /  0.0mm 0 W/m2
04:53 41 °F /  5 °C 32.4 °F /  0.2 °C 30.1in /  1017.6hPa Calm     71% 0in /  0.0mm 0 W/m2
04:58 40.8 °F /  4.9 °C 32.2 °F /  0.1 °C 30.1in /  1017.6hPa Calm     71% 0in /  0.0mm 0 W/m2
05:03 40.8 °F /  4.9 °C 32.2 °F /  0.1 °C 30.1in /  1017.6hPa Calm     71% 0in /  0.0mm 0 W/m2
05:08 40.8 °F /  4.9 °C 32.2 °F /  0.1 °C 30.1in /  1017.6hPa Calm     71% 0in /  0.0mm 0 W/m2
05:13 40.6 °F /  4.8 °C 32 °F /  0 °C 30.1in /  1017.6hPa Calm     71% 0in /  0.0mm 0 W/m2
05:18 40.6 °F /  4.8 °C 32.4 °F /  0.2 °C 30.1in /  1017.6hPa Calm     72% 0in /  0.0mm 0 W/m2
05:23 40.5 °F /  4.7 °C 32.5 °F /  0.3 °C 30.1in /  1017.6hPa Calm     73% 0in /  0.0mm 0 W/m2
05:28 40.5 °F /  4.7 °C 32.2 °F /  0.1 °C 30.1in /  1017.6hPa Calm     72% 0in /  0.0mm 0 W/m2
05:33 40.5 °F /  4.7 °C 32.5 °F /  0.3 °C 30.1in /  1017.6hPa Calm     73% 0in /  0.0mm 0 W/m2
05:38 40.5 °F /  4.7 °C 32.5 °F /  0.3 °C 30.1in /  1017.6hPa Calm     73% 0in /  0.0mm 0 W/m2
05:43 40.3 °F /  4.6 °C 32.4 °F /  0.2 °C 30in /  1017.3hPa Calm     73% 0in /  0.0mm 0 W/m2
05:48 40.3 °F /  4.6 °C 32.7 °F /  0.4 °C 30in /  1017.3hPa Calm     74% 0in /  0.0mm 0 W/m2
05:53 40.3 °F /  4.6 °C 32.7 °F /  0.4 °C 30in /  1017.3hPa Calm     74% 0in /  0.0mm 0 W/m2
05:58 40.1 °F /  4.5 °C 32.5 °F /  0.3 °C 30in /  1017.3hPa Calm     74% 0in /  0.0mm 0 W/m2
06:03 39.9 °F /  4.4 °C 32.7 °F /  0.4 °C 30.1in /  1017.6hPa Calm     75% 0in /  0.0mm 0 W/m2
06:08 39.9 °F /  4.4 °C 32.7 °F /  0.4 °C 30.1in /  1017.6hPa Calm     75% 0in /  0.0mm 0 W/m2
06:13 39.9 °F /  4.4 °C 32.7 °F /  0.4 °C 30.1in /  1017.6hPa Calm     75% 0in /  0.0mm 0 W/m2
06:18 39.7 °F /  4.3 °C 32.5 °F /  0.3 °C 30in /  1017.3hPa Calm     75% 0in /  0.0mm 0 W/m2
06:23 39.7 °F /  4.3 °C 32.7 °F /  0.4 °C 30in /  1017.3hPa Calm     76% 0in /  0.0mm 0 W/m2
06:28 39.6 °F /  4.2 °C 32.5 °F /  0.3 °C 30in /  1017.3hPa Calm     76% 0in /  0.0mm 0 W/m2
06:33 39.6 °F /  4.2 °C 32.5 °F /  0.3 °C 30in /  1017.3hPa Calm     76% 0in /  0.0mm 0 W/m2
06:38 39.4 °F /  4.1 °C 32.5 °F /  0.3 °C 30.1in /  1017.6hPa Calm     76% 0in /  0.0mm 0 W/m2
06:43 39.4 °F /  4.1 °C 32.7 °F /  0.4 °C 30in /  1017.3hPa Calm     77% 0in /  0.0mm 0 W/m2
06:48 39.2 °F /  4 °C 32.5 °F /  0.3 °C 30in /  1017.3hPa Calm     77% 0in /  0.0mm 7 W/m2
06:53 39.2 °F /  4 °C 32.9 °F /  0.5 °C 30in /  1017.3hPa Calm     78% 0in /  0.0mm 9 W/m2
06:58 39.2 °F /  4 °C 32.9 °F /  0.5 °C 30in /  1017.3hPa Calm     78% 0in /  0.0mm 11 W/m2
07:03 39.4 °F /  4.1 °C 33.1 °F /  0.6 °C 30.1in /  1017.6hPa Calm     78% 0in /  0.0mm 14 W/m2
07:08 39.4 °F /  4.1 °C 33.1 °F /  0.6 °C 30in /  1017.3hPa Calm     78% 0in /  0.0mm 16 W/m2
07:13 39.4 °F /  4.1 °C 33.1 °F /  0.6 °C 30.1in /  1017.6hPa Calm     78% 0in /  0.0mm 19 W/m2
07:18 39.4 °F /  4.1 °C 33.4 °F /  0.8 °C 30.1in /  1017.6hPa Calm     79% 0in /  0.0mm 21 W/m2
07:23 39.6 °F /  4.2 °C 33.6 °F /  0.9 °C 30.1in /  1017.6hPa Calm     79% 0in /  0.0mm 23 W/m2
07:28 39.6 °F /  4.2 °C 33.6 °F /  0.9 °C 30.1in /  1017.6hPa Calm     79% 0in /  0.0mm 26 W/m2
07:33 39.7 °F /  4.3 °C 33.8 °F /  1 °C 30.1in /  1017.6hPa Calm     79% 0in /  0.0mm 28 W/m2
07:38 39.9 °F /  4.4 °C 33.6 °F /  0.9 °C 30.1in /  1017.6hPa Calm     78% 0in /  0.0mm 30 W/m2
07:43 40.1 °F /  4.5 °C 33.8 °F /  1 °C 30.1in /  1017.6hPa Calm     78% 0in /  0.0mm 32 W/m2
07:48 40.3 °F /  4.6 °C 34 °F /  1.1 °C 30.1in /  1017.6hPa Calm     78% 0in /  0.0mm 33 W/m2
07:53 40.6 °F /  4.8 °C 34.3 °F /  1.3 °C 30.1in /  1017.6hPa Calm     78% 0in /  0.0mm 69 W/m2
07:58 41 °F /  5 °C 34.3 °F /  1.3 °C 30.1in /  1017.6hPa Calm     77% 0in /  0.0mm 76 W/m2
08:03 41.9 °F /  5.5 °C 35.2 °F /  1.8 °C 30.1in /  1017.6hPa Calm   2mph /  3.2km/h 77% 0in /  0.0mm 153 W/m2
08:08 42.8 °F /  6 °C 35.1 °F /  1.7 °C 30.1in /  1018.0hPa Calm   1mph /  1.6km/h 74% 0in /  0.0mm 163 W/m2
08:13 43.5 °F /  6.4 °C 35.1 °F /  1.7 °C 30.1in /  1018.0hPa Calm   2mph /  3.2km/h 72% 0in /  0.0mm 178 W/m2
08:18 44.4 °F /  6.9 °C 36 °F /  2.2 °C 30.1in /  1018.0hPa SE 0.9mph /  1.4km/h 2mph /  3.2km/h 72% 0in /  0.0mm 190 W/m2
08:23 45.1 °F /  7.3 °C 36 °F /  2.2 °C 30.1in /  1018.0hPa Calm   1mph /  1.6km/h 70% 0in /  0.0mm 204 W/m2
08:28 45.9 °F /  7.7 °C 36 °F /  2.2 °C 30.1in /  1018.0hPa ESE 0.9mph /  1.4km/h 1mph /  1.6km/h 68% 0in /  0.0mm 216 W/m2
08:33 46.4 °F /  8 °C 36 °F /  2.2 °C 30.1in /  1018.0hPa East 0.9mph /  1.4km/h 2mph /  3.2km/h 67% 0in /  0.0mm 234 W/m2
08:38 46.9 °F /  8.3 °C 35.8 °F /  2.1 °C 30.1in /  1018.0hPa ENE 2mph /  3.2km/h 3mph /  4.8km/h 65% 0in /  0.0mm 251 W/m2
08:43 47.1 °F /  8.4 °C 35.2 °F /  1.8 °C 30.1in /  1018.0hPa NE 2.9mph /  4.7km/h 3mph /  4.8km/h 63% 0in /  0.0mm 276 W/m2
08:48 47.5 °F /  8.6 °C 35.6 °F /  2 °C 30.1in /  1018.0hPa NE 2mph /  3.2km/h 3mph /  4.8km/h 63% 0in /  0.0mm 290 W/m2
08:53 47.5 °F /  8.6 °C 35.6 °F /  2 °C 30.1in /  1018.0hPa NE 0.9mph /  1.4km/h 3mph /  4.8km/h 63% 0in /  0.0mm 218 W/m2
08:58 47.8 °F /  8.8 °C 35.4 °F /  1.9 °C 30.1in /  1017.6hPa East 2.9mph /  4.7km/h 3mph /  4.8km/h 62% 0in /  0.0mm 278 W/m2
09:03 48 °F /  8.9 °C 35.2 °F /  1.8 °C 30.1in /  1018.0hPa East 0.9mph /  1.4km/h 2mph /  3.2km/h 61% 0in /  0.0mm 276 W/m2
09:08 48.4 °F /  9.1 °C 35.6 °F /  2 °C 30.1in /  1018.0hPa ENE 2mph /  3.2km/h 3mph /  4.8km/h 61% 0in /  0.0mm 330 W/m2
09:13 48.6 °F /  9.2 °C 35.8 °F /  2.1 °C 30.1in /  1017.6hPa NE 2mph /  3.2km/h 2mph /  3.2km/h 61% 0in /  0.0mm 299 W/m2
09:18 48.7 °F /  9.3 °C 36 °F /  2.2 °C 30.1in /  1017.6hPa ENE 2mph /  3.2km/h 3mph /  4.8km/h 61% 0in /  0.0mm 295 W/m2
09:23 48.9 °F /  9.4 °C 36.5 °F /  2.5 °C 30.1in /  1017.6hPa East 0.9mph /  1.4km/h 1mph /  1.6km/h 62% 0in /  0.0mm 357 W/m2
09:28 49.3 °F /  9.6 °C 36.3 °F /  2.4 °C 30.1in /  1017.6hPa NE 2mph /  3.2km/h 4mph /  6.4km/h 61% 0in /  0.0mm 360 W/m2
09:33 49.6 °F /  9.8 °C 37.6 °F /  3.1 °C 30.1in /  1017.6hPa NE 2mph /  3.2km/h 2mph /  3.2km/h 63% 0in /  0.0mm 376 W/m2
09:38 50.2 °F /  10.1 °C 37.6 °F /  3.1 °C 30.1in /  1017.6hPa ENE 2.9mph /  4.7km/h 4mph /  6.4km/h 62% 0in /  0.0mm 401 W/m2
09:43 50.9 °F /  10.5 °C 38.3 °F /  3.5 °C 30.1in /  1017.6hPa East 2mph /  3.2km/h 3mph /  4.8km/h 62% 0in /  0.0mm 388 W/m2
09:48 51.4 °F /  10.8 °C 38.5 °F /  3.6 °C 30.1in /  1017.6hPa ESE 2mph /  3.2km/h 2mph /  3.2km/h 61% 0in /  0.0mm 97 W/m2
09:53 52 °F /  11.1 °C 39 °F /  3.9 °C 30.1in /  1017.6hPa NE 0.9mph /  1.4km/h 2mph /  3.2km/h 61% 0in /  0.0mm 346 W/m2
09:58 52.7 °F /  11.5 °C 39.2 °F /  4 °C 30.1in /  1017.6hPa ESE 2mph /  3.2km/h 2mph /  3.2km/h 60% 0in /  0.0mm 441 W/m2
10:03 53.8 °F /  12.1 °C 39.7 °F /  4.3 °C 30.1in /  1017.6hPa ESE 2mph /  3.2km/h 3mph /  4.8km/h 59% 0in /  0.0mm 457 W/m2
10:08 54.5 °F /  12.5 °C 39.6 °F /  4.2 °C 30.1in /  1017.6hPa ENE 0.9mph /  1.4km/h 3mph /  4.8km/h 57% 0in /  0.0mm 466 W/m2
10:13 54.7 °F /  12.6 °C 39.7 °F /  4.3 °C 30.1in /  1017.6hPa ENE 0.9mph /  1.4km/h 3mph /  4.8km/h 57% 0in /  0.0mm 476 W/m2
10:18 55 °F /  12.8 °C 39.6 °F /  4.2 °C 30.1in /  1017.6hPa NNW 2mph /  3.2km/h 5mph /  8km/h 56% 0in /  0.0mm 490 W/m2
10:23 55.4 °F /  13 °C 40.5 °F /  4.7 °C 30.1in /  1017.6hPa NE 2.9mph /  4.7km/h 4mph /  6.4km/h 57% 0in /  0.0mm 501 W/m2
10:28 55.6 °F /  13.1 °C 41 °F /  5 °C 30.1in /  1017.6hPa Calm   5mph /  8km/h 58% 0in /  0.0mm 510 W/m2
10:33 56.1 °F /  13.4 °C 41.2 °F /  5.1 °C 30.1in /  1017.6hPa ENE 2mph /  3.2km/h 2mph /  3.2km/h 57% 0in /  0.0mm 501 W/m2
10:38 56.5 °F /  13.6 °C 41 °F /  5 °C 30.1in /  1017.6hPa East 2.9mph /  4.7km/h 5mph /  8km/h 56% 0in /  0.0mm 473 W/m2
10:43 57 °F /  13.9 °C 41.9 °F /  5.5 °C 30.1in /  1017.6hPa SE 2mph /  3.2km/h 2mph /  3.2km/h 57% 0in /  0.0mm 543 W/m2
10:48 57.7 °F /  14.3 °C 41.7 °F /  5.4 °C 30.1in /  1017.6hPa NE 2mph /  3.2km/h 2mph /  3.2km/h 55% 0in /  0.0mm 545 W/m2
10:53 57.9 °F /  14.4 °C 41.4 °F /  5.2 °C 30in /  1017.3hPa ENE 0.9mph /  1.4km/h 2mph /  3.2km/h 54% 0in /  0.0mm 531 W/m2
10:58 58.3 °F /  14.6 °C 42.3 °F /  5.7 °C 30in /  1017.3hPa Calm   2mph /  3.2km/h 55% 0in /  0.0mm 575 W/m2
11:03 59.2 °F /  15.1 °C 42.6 °F /  5.9 °C 30in /  1017.3hPa South 0.9mph /  1.4km/h 2mph /  3.2km/h 54% 0in /  0.0mm 541 W/m2
11:08 60.1 °F /  15.6 °C 43 °F /  6.1 °C 30in /  1017.3hPa NE 0.9mph /  1.4km/h 4mph /  6.4km/h 53% 0in /  0.0mm 570 W/m2
11:13 60.6 °F /  15.9 °C 43 °F /  6.1 °C 30in /  1017.3hPa ENE 2.9mph /  4.7km/h 3mph /  4.8km/h 52% 0in /  0.0mm 612 W/m2
11:18 61.3 °F /  16.3 °C 43 °F /  6.1 °C 30in /  1017.3hPa Calm   2mph /  3.2km/h 51% 0in /  0.0mm 631 W/m2
11:23 61.7 °F /  16.5 °C 43.3 °F /  6.3 °C 30in /  1017.3hPa East 0.9mph /  1.4km/h 2mph /  3.2km/h 51% 0in /  0.0mm 689 W/m2
11:28 62.2 °F /  16.8 °C 43.3 °F /  6.3 °C 30in /  1017.3hPa NE 0.9mph /  1.4km/h 6mph /  9.7km/h 50% 0in /  0.0mm 410 W/m2
11:33 62.1 °F /  16.7 °C 43.7 °F /  6.5 °C 30in /  1016.9hPa Calm   4mph /  6.4km/h 51% 0in /  0.0mm 503 W/m2
11:38 62.4 °F /  16.9 °C 43.5 °F /  6.4 °C 30in /  1016.9hPa Calm   6mph /  9.7km/h 50% 0in /  0.0mm 568 W/m2
11:43 62.6 °F /  17 °C 44.2 °F /  6.8 °C 30in /  1016.9hPa North 0.9mph /  1.4km/h 3mph /  4.8km/h 51% 0in /  0.0mm 578 W/m2
11:48 63.1 °F /  17.3 °C 44.8 °F /  7.1 °C 30in /  1016.9hPa ENE 0.9mph /  1.4km/h 4mph /  6.4km/h 51% 0in /  0.0mm 596 W/m2
11:53 63.5 °F /  17.5 °C 45.5 °F /  7.5 °C 30in /  1016.9hPa NE 2mph /  3.2km/h 3mph /  4.8km/h 52% 0in /  0.0mm 714 W/m2
11:58 64 °F /  17.8 °C 45.5 °F /  7.5 °C 30in /  1016.9hPa ESE 0.9mph /  1.4km/h 2mph /  3.2km/h 51% 0in /  0.0mm 700 W/m2
12:03 64.6 °F /  18.1 °C 45.5 °F /  7.5 °C 30in /  1016.9hPa NE 2mph /  3.2km/h 4mph /  6.4km/h 50% 0in /  0.0mm 571 W/m2
12:08 64.8 °F /  18.2 °C 45.7 °F /  7.6 °C 30in /  1016.9hPa ENE 4mph /  6.4km/h 4mph /  6.4km/h 50% 0in /  0.0mm 480 W/m2
12:13 64.9 °F /  18.3 °C 45.3 °F /  7.4 °C 30in /  1016.9hPa Calm   1mph /  1.6km/h 49% 0in /  0.0mm 473 W/m2
12:19 65.1 °F /  18.4 °C 45.5 °F /  7.5 °C 30in /  1016.9hPa NE 0.9mph /  1.4km/h 1mph /  1.6km/h 49% 0in /  0.0mm 380 W/m2
12:24 65.8 °F /  18.8 °C 46.2 °F /  7.9 °C 30in /  1016.6hPa East 3mph /  4.8km/h 3mph /  4.8km/h 49% 0in /  0.0mm 422 W/m2
12:29 66.4 °F /  19.1 °C 47.1 °F /  8.4 °C 30in /  1016.6hPa SE 2mph /  3.2km/h 3mph /  4.8km/h 50% 0in /  0.0mm 459 W/m2
12:34 66.9 °F /  19.4 °C 47.1 °F /  8.4 °C 30in /  1016.6hPa ENE 0.9mph /  1.4km/h 2mph /  3.2km/h 49% 0in /  0.0mm 413 W/m2
12:39 67.3 °F /  19.6 °C 46.4 °F /  8 °C 30in /  1016.6hPa Calm   1mph /  1.6km/h 47% 0in /  0.0mm 388 W/m2
12:44 67.5 °F /  19.7 °C 46.6 °F /  8.1 °C 30in /  1016.6hPa East 0.9mph /  1.4km/h 3mph /  4.8km/h 47% 0in /  0.0mm 413 W/m2
12:49 67.6 °F /  19.8 °C 46.8 °F /  8.2 °C 30in /  1016.6hPa Calm   2mph /  3.2km/h 47% 0in /  0.0mm 392 W/m2
12:54 67.8 °F /  19.9 °C 45.7 °F /  7.6 °C 30in /  1016.6hPa NE 2.9mph /  4.7km/h 3mph /  4.8km/h 45% 0in /  0.0mm 410 W/m2
12:59 68 °F /  20 °C 45.9 °F /  7.7 °C 30in /  1016.6hPa ENE 2.9mph /  4.7km/h 3mph /  4.8km/h 45% 0in /  0.0mm 415 W/m2
13:04 68 °F /  20 °C 46.4 °F /  8 °C 30in /  1016.3hPa Calm   3mph /  4.8km/h 46% 0in /  0.0mm 425 W/m2
13:09 68.2 °F /  20.1 °C 46.6 °F /  8.1 °C 30in /  1016.3hPa Calm   2mph /  3.2km/h 46% 0in /  0.0mm 557 W/m2
13:14 68.5 °F /  20.3 °C 46.4 °F /  8 °C 30in /  1016.3hPa ESE 2mph /  3.2km/h 6mph /  9.7km/h 45% 0in /  0.0mm 738 W/m2
13:19 69.1 °F /  20.6 °C 46.8 °F /  8.2 °C 30in /  1016.3hPa NE 4mph /  6.4km/h 4mph /  6.4km/h 45% 0in /  0.0mm 796 W/m2
13:24 69.6 °F /  20.9 °C 47.8 °F /  8.8 °C 30in /  1016.3hPa Calm   3mph /  4.8km/h 46% 0in /  0.0mm 870 W/m2
13:29 70.2 °F /  21.2 °C 47.3 °F /  8.5 °C 30in /  1016.3hPa ENE 2mph /  3.2km/h 7mph /  11.3km/h 44% 0in /  0.0mm 858 W/m2
13:34 70.7 °F /  21.5 °C 46.4 °F /  8 °C 30in /  1016.3hPa North 2mph /  3.2km/h 3mph /  4.8km/h 42% 0in /  0.0mm 812 W/m2
13:39 71.2 °F /  21.8 °C 45.7 °F /  7.6 °C 30in /  1015.9hPa SSE 2mph /  3.2km/h 5mph /  8km/h 40% 0in /  0.0mm 777 W/m2
13:44 71.8 °F /  22.1 °C 44.1 °F /  6.7 °C 30in /  1016.3hPa West 6mph /  9.7km/h 6mph /  9.7km/h 37% 0in /  0.0mm 691 W/m2
13:49 72 °F /  22.2 °C 45 °F /  7.2 °C 30in /  1016.3hPa NE 0.9mph /  1.4km/h 6mph /  9.7km/h 38% 0in /  0.0mm 438 W/m2
13:54 71.2 °F /  21.8 °C 44.2 °F /  6.8 °C 30in /  1015.9hPa West 2.9mph /  4.7km/h 9mph /  14.5km/h 38% 0in /  0.0mm 325 W/m2
13:59 70.9 °F /  21.6 °C 44.8 °F /  7.1 °C 30in /  1015.9hPa NNW 2mph /  3.2km/h 3mph /  4.8km/h 39% 0in /  0.0mm 454 W/m2
14:04 70.9 °F /  21.6 °C 45.3 °F /  7.4 °C 30in /  1015.9hPa NE 0.9mph /  1.4km/h 5mph /  8km/h 40% 0in /  0.0mm 422 W/m2
14:09 71.1 °F /  21.7 °C 45.5 °F /  7.5 °C 30in /  1015.9hPa Calm   6mph /  9.7km/h 40% 0in /  0.0mm 345 W/m2
14:14 70.9 °F /  21.6 °C 44.8 °F /  7.1 °C 30in /  1015.9hPa WSW 2mph /  3.2km/h 5mph /  8km/h 39% 0in /  0.0mm 325 W/m2
14:19 70.5 °F /  21.4 °C 44.4 °F /  6.9 °C 30in /  1015.9hPa NW 2.9mph /  4.7km/h 8mph /  12.9km/h 39% 0in /  0.0mm 359 W/m2
14:24 70.3 °F /  21.3 °C 45 °F /  7.2 °C 30in /  1015.6hPa West 8.1mph /  13km/h 8mph /  12.9km/h 40% 0in /  0.0mm 413 W/m2
14:29 70.3 °F /  21.3 °C 45 °F /  7.2 °C 30in /  1015.6hPa WSW 4mph /  6.4km/h 4mph /  6.4km/h 40% 0in /  0.0mm 512 W/m2
14:34 70.3 °F /  21.3 °C 44.2 °F /  6.8 °C 30in /  1015.6hPa West 2mph /  3.2km/h 4mph /  6.4km/h 39% 0in /  0.0mm 499 W/m2
14:39 70.7 °F /  21.5 °C 45.9 °F /  7.7 °C 30in /  1015.6hPa North 0.9mph /  1.4km/h 3mph /  4.8km/h 41% 0in /  0.0mm 425 W/m2
14:44 70.7 °F /  21.5 °C 44.6 °F /  7 °C 30in /  1015.6hPa NNE 2mph /  3.2km/h 4mph /  6.4km/h 39% 0in /  0.0mm 431 W/m2
14:49 70.5 °F /  21.4 °C 46.4 °F /  8 °C 30in /  1015.6hPa ESE 2mph /  3.2km/h 2mph /  3.2km/h 42% 0in /  0.0mm 647 W/m2
14:54 71.2 °F /  21.8 °C 50 °F /  10 °C 30in /  1015.6hPa ESE 0.9mph /  1.4km/h 2mph /  3.2km/h 47% 0in /  0.0mm 765 W/m2
14:59 72.1 °F /  22.3 °C 49.1 °F /  9.5 °C 30in /  1015.6hPa Calm   3mph /  4.8km/h 44% 0in /  0.0mm 751 W/m2
15:04 72.9 °F /  22.7 °C 47.1 °F /  8.4 °C 30in /  1015.2hPa East 4mph /  6.4km/h 6mph /  9.7km/h 40% 0in /  0.0mm 705 W/m2
15:09 73 °F /  22.8 °C 46.6 °F /  8.1 °C 30in /  1015.2hPa SE 2.9mph /  4.7km/h 5mph /  8km/h 39% 0in /  0.0mm 671 W/m2
15:14 73 °F /  22.8 °C 46.6 °F /  8.1 °C 30in /  1015.2hPa Calm   2mph /  3.2km/h 39% 0in /  0.0mm 652 W/m2
15:19 73.2 °F /  22.9 °C 47.5 °F /  8.6 °C 30in /  1015.2hPa ESE 0.9mph /  1.4km/h 6mph /  9.7km/h 40% 0in /  0.0mm 633 W/m2
15:24 73.4 °F /  23 °C 46.2 °F /  7.9 °C 30in /  1015.2hPa Calm   4mph /  6.4km/h 38% 0in /  0.0mm 591 W/m2
15:29 73.2 °F /  22.9 °C 47.5 °F /  8.6 °C 30in /  1015.2hPa WSW 4.9mph /  7.9km/h 7mph /  11.3km/h 40% 0in /  0.0mm 617 W/m2
15:34 73.2 °F /  22.9 °C 47.5 °F /  8.6 °C 30in /  1015.2hPa East 8.1mph /  13km/h 8mph /  12.9km/h 40% 0in /  0.0mm 615 W/m2
15:39 73.2 °F /  22.9 °C 46 °F /  7.8 °C 30in /  1014.9hPa ESE 2.9mph /  4.7km/h 4mph /  6.4km/h 38% 0in /  0.0mm 605 W/m2
15:44 73.4 °F /  23 °C 46.9 °F /  8.3 °C 30in /  1014.9hPa ENE 2.9mph /  4.7km/h 4mph /  6.4km/h 39% 0in /  0.0mm 594 W/m2
15:49 73.4 °F /  23 °C 46.2 °F /  7.9 °C 30in /  1014.9hPa Calm   3mph /  4.8km/h 38% 0in /  0.0mm 584 W/m2
15:54 73.8 °F /  23.2 °C 46.6 °F /  8.1 °C 30in /  1014.9hPa ESE 2mph /  3.2km/h 4mph /  6.4km/h 38% 0in /  0.0mm 575 W/m2
15:59 74.1 °F /  23.4 °C 46.9 °F /  8.3 °C 30in /  1014.9hPa Calm   1mph /  1.6km/h 38% 0in /  0.0mm 568 W/m2
16:04 74.5 °F /  23.6 °C 46.6 °F /  8.1 °C 30in /  1014.6hPa Calm   2mph /  3.2km/h 37% 0in /  0.0mm 557 W/m2
16:09 75 °F /  23.9 °C 46.9 °F /  8.3 °C 30in /  1014.6hPa NE 2.9mph /  4.7km/h 5mph /  8km/h 37% 0in /  0.0mm 552 W/m2
16:14 74.7 °F /  23.7 °C 45.9 °F /  7.7 °C 30in /  1014.6hPa North 0.9mph /  1.4km/h 5mph /  8km/h 36% 0in /  0.0mm 547 W/m2
16:19 74.5 °F /  23.6 °C 45.9 °F /  7.7 °C 30in /  1014.6hPa ESE 0.9mph /  1.4km/h 2mph /  3.2km/h 36% 0in /  0.0mm 533 W/m2
16:25 74.5 °F /  23.6 °C 45.9 °F /  7.7 °C 30in /  1014.6hPa ESE 6mph /  9.7km/h 10mph /  16.1km/h 36% 0in /  0.0mm 520 W/m2
16:30 74.7 °F /  23.7 °C 44.4 °F /  6.9 °C 30in /  1014.6hPa East 2mph /  3.2km/h 4mph /  6.4km/h 34% 0in /  0.0mm 515 W/m2
16:35 74.8 °F /  23.8 °C 46 °F /  7.8 °C 30in /  1014.6hPa SE 2mph /  3.2km/h 7mph /  11.3km/h 36% 0in /  0.0mm 504 W/m2
16:40 75 °F /  23.9 °C 44.8 °F /  7.1 °C 30in /  1014.6hPa ESE 0.9mph /  1.4km/h 6mph /  9.7km/h 34% 0in /  0.0mm 497 W/m2
16:45 74.7 °F /  23.7 °C 43.7 °F /  6.5 °C 30in /  1014.6hPa NNW 0.9mph /  1.4km/h 8mph /  12.9km/h 33% 0in /  0.0mm 483 W/m2
16:50 74.5 °F /  23.6 °C 44.2 °F /  6.8 °C 30in /  1014.6hPa NE 4mph /  6.4km/h 4mph /  6.4km/h 34% 0in /  0.0mm 469 W/m2
16:55 74.3 °F /  23.5 °C 45 °F /  7.2 °C 30in /  1014.6hPa NE 4mph /  6.4km/h 4mph /  6.4km/h 35% 0in /  0.0mm 462 W/m2
17:00 74.3 °F /  23.5 °C 45.7 °F /  7.6 °C 30in /  1014.6hPa SSE 2mph /  3.2km/h 4mph /  6.4km/h 36% 0in /  0.0mm 446 W/m2
17:05 74.7 °F /  23.7 °C 44.4 °F /  6.9 °C 30in /  1014.6hPa NW 2.9mph /  4.7km/h 4mph /  6.4km/h 34% 0in /  0.0mm 436 W/m2
17:10 75 °F /  23.9 °C 44.8 °F /  7.1 °C 30in /  1014.2hPa NNW 0.9mph /  1.4km/h 3mph /  4.8km/h 34% 0in /  0.0mm 427 W/m2
17:15 75.4 °F /  24.1 °C 46.6 °F /  8.1 °C 30in /  1014.2hPa WSW 2mph /  3.2km/h 2mph /  3.2km/h 36% 0in /  0.0mm 417 W/m2
17:20 75.7 °F /  24.3 °C 44.6 °F /  7 °C 30in /  1014.2hPa NW 0.9mph /  1.4km/h 1mph /  1.6km/h 33% 0in /  0.0mm 410 W/m2
17:25 75.9 °F /  24.4 °C 44.8 °F /  7.1 °C 30in /  1014.2hPa ESE 2mph /  3.2km/h 4mph /  6.4km/h 33% 0in /  0.0mm 397 W/m2
17:30 76.3 °F /  24.6 °C 45.1 °F /  7.3 °C 30in /  1014.2hPa Calm   2mph /  3.2km/h 33% 0in /  0.0mm 385 W/m2
17:35 75.9 °F /  24.4 °C 43.9 °F /  6.6 °C 29.9in /  1013.9hPa Calm   1mph /  1.6km/h 32% 0in /  0.0mm 371 W/m2
17:40 75.9 °F /  24.4 °C 43.2 °F /  6.2 °C 30in /  1014.2hPa SW 0.9mph /  1.4km/h 8mph /  12.9km/h 31% 0in /  0.0mm 357 W/m2
17:45 75.7 °F /  24.3 °C 43.7 °F /  6.5 °C 29.9in /  1013.9hPa West 2mph /  3.2km/h 7mph /  11.3km/h 32% 0in /  0.0mm 345 W/m2
17:50 75.6 °F /  24.2 °C 43.7 °F /  6.5 °C 30in /  1014.2hPa WNW 4mph /  6.4km/h 4mph /  6.4km/h 32% 0in /  0.0mm 334 W/m2
17:55 75.4 °F /  24.1 °C 45.1 °F /  7.3 °C 29.9in /  1013.9hPa West 4mph /  6.4km/h 8mph /  12.9km/h 34% 0in /  0.0mm 315 W/m2
18:00 75 °F /  23.9 °C 43.9 °F /  6.6 °C 29.9in /  1013.9hPa West 2mph /  3.2km/h 3mph /  4.8km/h 33% 0in /  0.0mm 309 W/m2
18:05 75 °F /  23.9 °C 45.5 °F /  7.5 °C 29.9in /  1013.9hPa West 2mph /  3.2km/h 3mph /  4.8km/h 35% 0in /  0.0mm 301 W/m2
18:10 75.4 °F /  24.1 °C 45.1 °F /  7.3 °C 29.9in /  1013.9hPa West 2.9mph /  4.7km/h 3mph /  4.8km/h 34% 0in /  0.0mm 283 W/m2
18:15 75.4 °F /  24.1 °C 44.2 °F /  6.8 °C 29.9in /  1013.9hPa Calm   3mph /  4.8km/h 33% 0in /  0.0mm 272 W/m2
18:20 75.6 °F /  24.2 °C 45.1 °F /  7.3 °C 29.9in /  1013.9hPa West 2mph /  3.2km/h 6mph /  9.7km/h 34% 0in /  0.0mm 257 W/m2
18:25 75.4 °F /  24.1 °C 45.1 °F /  7.3 °C 29.9in /  1013.9hPa WNW 4mph /  6.4km/h 4mph /  6.4km/h 34% 0in /  0.0mm 250 W/m2
18:30 74.8 °F /  23.8 °C 44.6 °F /  7 °C 29.9in /  1013.9hPa West 2.9mph /  4.7km/h 3mph /  4.8km/h 34% 0in /  0.0mm 232 W/m2
18:35 74.7 °F /  23.7 °C 45.9 °F /  7.7 °C 29.9in /  1013.9hPa NW 0.9mph /  1.4km/h 3mph /  4.8km/h 36% 0in /  0.0mm 216 W/m2
18:40 74.8 °F /  23.8 °C 46 °F /  7.8 °C 29.9in /  1013.9hPa West 2mph /  3.2km/h 3mph /  4.8km/h 36% 0in /  0.0mm 206 W/m2
18:45 74.7 °F /  23.7 °C 45.1 °F /  7.3 °C 29.9in /  1013.9hPa WSW 4.9mph /  7.9km/h 5mph /  8km/h 35% 0in /  0.0mm 193 W/m2
18:50 74.5 °F /  23.6 °C 45 °F /  7.2 °C 29.9in /  1013.9hPa WNW 4.9mph /  7.9km/h 5mph /  8km/h 35% 0in /  0.0mm 181 W/m2
18:55 74.1 °F /  23.4 °C 46.9 °F /  8.3 °C 29.9in /  1013.9hPa West 2mph /  3.2km/h 3mph /  4.8km/h 38% 0in /  0.0mm 163 W/m2
19:00 74.1 °F /  23.4 °C 45.5 °F /  7.5 °C 29.9in /  1013.9hPa SW 2mph /  3.2km/h 4mph /  6.4km/h 36% 0in /  0.0mm 141 W/m2
19:05 74.1 °F /  23.4 °C 46.2 °F /  7.9 °C 29.9in /  1013.5hPa West 2mph /  3.2km/h 2mph /  3.2km/h 37% 0in /  0.0mm 107 W/m2
19:10 73.9 °F /  23.3 °C 47.5 °F /  8.6 °C 29.9in /  1013.9hPa Calm   2mph /  3.2km/h 39% 0in /  0.0mm 113 W/m2
19:15 74.1 °F /  23.4 °C 47.7 °F /  8.7 °C 29.9in /  1013.9hPa SW 0.9mph /  1.4km/h 1mph /  1.6km/h 39% 0in /  0.0mm 109 W/m2
19:20 73.9 °F /  23.3 °C 46.8 °F /  8.2 °C 29.9in /  1013.9hPa West 2mph /  3.2km/h 4mph /  6.4km/h 38% 0in /  0.0mm 98 W/m2
19:25 73.4 °F /  23 °C 46.9 °F /  8.3 °C 29.9in /  1013.9hPa Calm   1mph /  1.6km/h 39% 0in /  0.0mm 58 W/m2
19:30 73 °F /  22.8 °C 49.3 °F /  9.6 °C 29.9in /  1013.9hPa WNW 0.9mph /  1.4km/h 4mph /  6.4km/h 43% 0in /  0.0mm 63 W/m2
19:36 72.5 °F /  22.5 °C 49.3 °F /  9.6 °C 29.9in /  1013.9hPa Calm   1mph /  1.6km/h 44% 0in /  0.0mm 53 W/m2
19:41 72 °F /  22.2 °C 47.7 °F /  8.7 °C 29.9in /  1013.9hPa West 0.9mph /  1.4km/h 2mph /  3.2km/h 42% 0in /  0.0mm 39 W/m2
19:46 71.1 °F /  21.7 °C 46.8 °F /  8.2 °C 29.9in /  1013.9hPa WNW 2.9mph /  4.7km/h 3mph /  4.8km/h 42% 0in /  0.0mm 37 W/m2
19:51 70.2 °F /  21.2 °C 46 °F /  7.8 °C 29.9in /  1013.9hPa WSW 2.9mph /  4.7km/h 7mph /  11.3km/h 42% 0in /  0.0mm 40 W/m2
19:56 69.8 °F /  21 °C 46.2 °F /  7.9 °C 29.9in /  1013.9hPa WSW 2.9mph /  4.7km/h 6mph /  9.7km/h 43% 0in /  0.0mm 35 W/m2
20:01 69.4 °F /  20.8 °C 47.1 °F /  8.4 °C 29.9in /  1013.9hPa West 4mph /  6.4km/h 4mph /  6.4km/h 45% 0in /  0.0mm 28 W/m2
20:06 68.7 °F /  20.4 °C 46.6 °F /  8.1 °C 29.9in /  1013.9hPa West 6mph /  9.7km/h 6mph /  9.7km/h 45% 0in /  0.0mm 21 W/m2
20:11 68.5 °F /  20.3 °C 46.9 °F /  8.3 °C 29.9in /  1013.9hPa West 2mph /  3.2km/h 3mph /  4.8km/h 46% 0in /  0.0mm 18 W/m2
20:16 68.2 °F /  20.1 °C 47.1 °F /  8.4 °C 29.9in /  1013.9hPa WSW 4mph /  6.4km/h 7mph /  11.3km/h 47% 0in /  0.0mm 14 W/m2
20:21 67.8 °F /  19.9 °C 47.5 °F /  8.6 °C 30in /  1014.2hPa WSW 2.9mph /  4.7km/h 3mph /  4.8km/h 48% 0in /  0.0mm 11 W/m2
20:26 67.6 °F /  19.8 °C 47.3 °F /  8.5 °C 30in /  1014.2hPa WSW 4mph /  6.4km/h 4mph /  6.4km/h 48% 0in /  0.0mm 7 W/m2
20:31 67.3 °F /  19.6 °C 47.5 °F /  8.6 °C 30in /  1014.2hPa West 0.9mph /  1.4km/h 4mph /  6.4km/h 49% 0in /  0.0mm 0 W/m2
20:36 66.9 °F /  19.4 °C 47.1 °F /  8.4 °C 30in /  1014.2hPa WNW 4.9mph /  7.9km/h 6mph /  9.7km/h 49% 0in /  0.0mm 5 W/m2
20:41 66.7 °F /  19.3 °C 46.9 °F /  8.3 °C 30in /  1014.2hPa West 2mph /  3.2km/h 4mph /  6.4km/h 49% 0in /  0.0mm 0 W/m2
20:46 66.6 °F /  19.2 °C 47.3 °F /  8.5 °C 30in /  1014.2hPa West 2.9mph /  4.7km/h 4mph /  6.4km/h 50% 0in /  0.0mm 0 W/m2
20:51 66.4 °F /  19.1 °C 47.1 °F /  8.4 °C 30in /  1014.2hPa West 0.9mph /  1.4km/h 2mph /  3.2km/h 50% 0in /  0.0mm 0 W/m2
20:56 66 °F /  18.9 °C 47.3 °F /  8.5 °C 30in /  1014.2hPa Calm   2mph /  3.2km/h 51% 0in /  0.0mm 0 W/m2
21:01 65.7 °F /  18.7 °C 47.5 °F /  8.6 °C 30in /  1014.2hPa Calm   1mph /  1.6km/h 52% 0in /  0.0mm 0 W/m2
21:06 65.1 °F /  18.4 °C 47.5 °F /  8.6 °C 30in /  1014.2hPa WNW 0.9mph /  1.4km/h 1mph /  1.6km/h 53% 0in /  0.0mm 0 W/m2
21:11 64.4 °F /  18 °C 47.5 °F /  8.6 °C 30in /  1014.2hPa WNW 0.9mph /  1.4km/h 2mph /  3.2km/h 54% 0in /  0.0mm 0 W/m2
21:16 64 °F /  17.8 °C 47.5 °F /  8.6 °C 30in /  1014.2hPa WNW 2mph /  3.2km/h 2mph /  3.2km/h 55% 0in /  0.0mm 0 W/m2
21:21 63.7 °F /  17.6 °C 47.7 °F /  8.7 °C 30in /  1014.6hPa WNW 0.9mph /  1.4km/h 2mph /  3.2km/h 56% 0in /  0.0mm 0 W/m2
21:26 63.1 °F /  17.3 °C 47.7 °F /  8.7 °C 30in /  1014.6hPa WNW 0.9mph /  1.4km/h 2mph /  3.2km/h 57% 0in /  0.0mm 0 W/m2
21:31 63 °F /  17.2 °C 47.5 °F /  8.6 °C 30in /  1014.6hPa WNW 0.9mph /  1.4km/h 2mph /  3.2km/h 57% 0in /  0.0mm 0 W/m2
21:36 62.8 °F /  17.1 °C 47.8 °F /  8.8 °C 30in /  1014.6hPa Calm   3mph /  4.8km/h 58% 0in /  0.0mm 0 W/m2
21:41 62.2 °F /  16.8 °C 47.7 °F /  8.7 °C 30in /  1014.6hPa WNW 0.9mph /  1.4km/h 2mph /  3.2km/h 59% 0in /  0.0mm 0 W/m2
21:46 61.7 °F /  16.5 °C 47.3 °F /  8.5 °C 30in /  1014.6hPa West 0.9mph /  1.4km/h 2mph /  3.2km/h 59% 0in /  0.0mm 0 W/m2
21:51 61.5 °F /  16.4 °C 47.5 °F /  8.6 °C 30in /  1014.6hPa West 2.9mph /  4.7km/h 3mph /  4.8km/h 60% 0in /  0.0mm 0 W/m2
21:56 61.9 °F /  16.6 °C 47.5 °F /  8.6 °C 30in /  1014.6hPa WSW 2mph /  3.2km/h 6mph /  9.7km/h 59% 0in /  0.0mm 0 W/m2
22:01 62.4 °F /  16.9 °C 47.5 °F /  8.6 °C 30in /  1014.6hPa West 6.9mph /  11.1km/h 7mph /  11.3km/h 58% 0in /  0.0mm 0 W/m2
22:06 63.1 °F /  17.3 °C 47.7 °F /  8.7 °C 30in /  1014.6hPa West 4mph /  6.4km/h 6mph /  9.7km/h 57% 0in /  0.0mm 0 W/m2
22:11 63.7 °F /  17.6 °C 47.7 °F /  8.7 °C 30in /  1014.6hPa WSW 4mph /  6.4km/h 7mph /  11.3km/h 56% 0in /  0.0mm 0 W/m2
22:16 63.9 °F /  17.7 °C 47.8 °F /  8.8 °C 30in /  1014.6hPa West 2.9mph /  4.7km/h 6mph /  9.7km/h 56% 0in /  0.0mm 0 W/m2
22:21 63.9 °F /  17.7 °C 47.8 °F /  8.8 °C 30in /  1014.6hPa West 6mph /  9.7km/h 8mph /  12.9km/h 56% 0in /  0.0mm 0 W/m2
22:27 63.9 °F /  17.7 °C 47.8 °F /  8.8 °C 30in /  1014.6hPa West 2mph /  3.2km/h 6mph /  9.7km/h 56% 0in /  0.0mm 0 W/m2
22:32 63.7 °F /  17.6 °C 48.2 °F /  9 °C 30in /  1014.6hPa West 2.9mph /  4.7km/h 8mph /  12.9km/h 57% 0in /  0.0mm 0 W/m2
22:37 63.7 °F /  17.6 °C 48.2 °F /  9 °C 30in /  1014.6hPa West 0.9mph /  1.4km/h 4mph /  6.4km/h 57% 0in /  0.0mm 0 W/m2
22:42 63.5 °F /  17.5 °C 48 °F /  8.9 °C 30in /  1014.6hPa West 2mph /  3.2km/h 4mph /  6.4km/h 57% 0in /  0.0mm 0 W/m2
22:47 63.3 °F /  17.4 °C 47.8 °F /  8.8 °C 30in /  1014.6hPa West 2mph /  3.2km/h 3mph /  4.8km/h 57% 0in /  0.0mm 0 W/m2
22:52 63.1 °F /  17.3 °C 47.7 °F /  8.7 °C 30in /  1014.6hPa WSW 2mph /  3.2km/h 4mph /  6.4km/h 57% 0in /  0.0mm 0 W/m2
22:57 63.1 °F /  17.3 °C 47.7 °F /  8.7 °C 30in /  1014.6hPa West 4mph /  6.4km/h 5mph /  8km/h 57% 0in /  0.0mm 0 W/m2
23:02 63.1 °F /  17.3 °C 47.7 °F /  8.7 °C 30in /  1014.6hPa WSW 2mph /  3.2km/h 4mph /  6.4km/h 57% 0in /  0.0mm 0 W/m2
23:07 63.1 °F /  17.3 °C 48.2 °F /  9 °C 30in /  1014.6hPa West 0.9mph /  1.4km/h 6mph /  9.7km/h 58% 0in /  0.0mm 0 W/m2
23:12 63.1 °F /  17.3 °C 48.2 °F /  9 °C 30in /  1014.6hPa WSW 2mph /  3.2km/h 2mph /  3.2km/h 58% 0in /  0.0mm 0 W/m2
23:17 63 °F /  17.2 °C 48 °F /  8.9 °C 30in /  1014.6hPa WSW 0.9mph /  1.4km/h 2mph /  3.2km/h 58% 0in /  0.0mm 0 W/m2
23:22 62.8 °F /  17.1 °C 47.8 °F /  8.8 °C 30in /  1014.6hPa Calm   1mph /  1.6km/h 58% 0in /  0.0mm 0 W/m2
23:27 62.4 °F /  16.9 °C 47.8 °F /  8.8 °C 30in /  1014.6hPa West 0.9mph /  1.4km/h 2mph /  3.2km/h 59% 0in /  0.0mm 0 W/m2
23:32 61.9 °F /  16.6 °C 48.2 °F /  9 °C 30in /  1014.6hPa Calm     61% 0in /  0.0mm 0 W/m2
23:37 61.3 °F /  16.3 °C 48.2 °F /  9 °C 30in /  1014.6hPa Calm     62% 0in /  0.0mm 0 W/m2
23:42 60.6 °F /  15.9 °C 48 °F /  8.9 °C 30in /  1014.6hPa Calm     63% 0in /  0.0mm 0 W/m2
23:47 60.1 °F /  15.6 °C 47.8 °F /  8.8 °C 30in /  1014.6hPa Calm     64% 0in /  0.0mm 0 W/m2
23:52 59.4 °F /  15.2 °C 47.7 °F /  8.7 °C 30in /  1014.6hPa Calm     65% 0in /  0.0mm 0 W/m2
23:57 58.8 °F /  14.9 °C 47.5 °F /  8.6 °C 30in /  1014.6hPa Calm     66% 0in /  0.0mm 0 W/m2
Juneau County Weather
Compliments of Weather Underground - 4 mb